Allenport, Pennsylvania
Current Conditions -  °F | °C
As of 9:53 PM on Tuesday 21 Oct 2014 (Local Time) from KAGC Reporting Station
Overcast Overcast  
Wind Chill:   Ceiling: 1000
Heat Index:   Visibility: 8mi
Dew Point:   Wind: 9mph
Humidity: 80%   Direction: 320°NW
Pressure: 30"   Gusts: NA
Location:  40.1°N, 79.85°W
Report Text: KAGC 220153Z 32008KT 8SM OVC010 09/06 A3000 RMK AO2 SLP167 T00890056
Loading
Personal Weather Stations






























Interactive Weather Map
Tropical Storm Tracking
New forecast layout! Learn more

10-Day Weather Forecast

Advertisements
Track Severe Weather on mobile